Aviation Digital Data Service (ADDS)

Output produced by METARs form (0234 UTC 24 August 2016)
found at http://www.aviationweather.gov/adds/metars/
 
KSAV 240153Z 07005KT 10SM FEW028 SCT140 BKN200 27/22 A3022 RMK AO2 SLP231 T02670222